Time;durP1;ratioP1;P1;durP2;ratioP2;P2;SDS_P1;SDS_P2;PMS_P1;PMS_P2;Temp;Humidity;BMP_temperature;BMP_pressure;BME280_temperature;BME280_humidity;BME280_pressure;Samples;Min_cycle;Max_cycle;Signal;HPM_P1;HPM_P2
2023/08/29 00:04:35;;;;;;;4.40;4.07;;;;;;;12.73;100.00;151879.50;10582415;28;20396;-72
2023/08/29 00:09:36;;;;;;;6.13;5.72;;;;;;;12.71;100.00;151874.38;10582175;28;20039;-72
2023/08/29 00:14:39;;;;;;;6.00;5.60;;;;;;;12.73;100.00;151880.81;10582351;28;20122;-72
2023/08/29 00:19:41;;;;;;;5.63;5.22;;;;;;;12.81;100.00;151900.22;10582511;28;20078;-72
2023/08/29 00:24:44;;;;;;;5.88;5.40;;;;;;;13.21;100.00;152001.13;10583279;28;20078;-72
2023/08/29 00:29:45;;;;;;;6.50;6.10;;;;;;;12.90;100.00;151922.22;10581931;28;20043;-71
2023/08/29 00:34:47;;;;;;;7.10;6.60;;;;;;;12.99;100.00;151946.78;10582630;28;20532;-71
2023/08/29 00:39:49;;;;;;;7.25;6.75;;;;;;;12.85;100.00;151910.56;10581654;28;20401;-71
2023/08/29 00:44:51;;;;;;;6.65;6.15;;;;;;;13.02;100.00;151953.25;10571982;28;20050;-71
2023/08/29 00:49:54;;;;;;;7.40;6.90;;;;;;;12.97;100.00;151940.28;10591554;28;20040;-71
2023/08/29 00:54:57;;;;;;;8.38;7.88;;;;;;;12.87;100.00;151915.72;10590794;28;20035;-71
2023/08/29 00:59:58;;;;;;;6.50;6.10;;;;;;;12.78;100.00;151893.72;10591180;28;20130;-71
2023/08/29 01:05:00;;;;;;;8.63;8.07;;;;;;;12.75;100.00;151884.66;10570648;28;20047;-71
2023/08/29 01:10:02;;;;;;;8.32;7.72;;;;;;;12.77;100.00;151891.16;10589359;28;20070;-71
2023/08/29 01:15:31;;;;;;;8.43;7.85;;;;;;;12.85;100.00;151910.56;10588566;28;20057;-70
2023/08/29 01:20:48;;;;;;;7.40;6.90;;;;;;;12.94;100.00;151933.84;10556254;28;20047;-71
2023/08/29 01:26:12;;;;;;;7.97;7.38;;;;;;;12.81;100.00;151901.50;10589150;28;20088;-71
2023/08/29 01:31:16;;;;;;;8.87;8.27;;;;;;;12.73;100.00;151880.81;10589169;28;20059;-71
2023/08/29 01:36:21;;;;;;;10.63;9.93;;;;;;;12.66;100.00;151861.41;10570713;28;20531;-72
2023/08/29 01:41:23;;;;;;;11.52;10.63;;;;;;;12.61;100.00;151851.03;10569821;28;20112;-71
2023/08/29 01:46:25;;;;;;;12.40;11.60;;;;;;;12.55;100.00;151835.53;10570819;28;20503;-71
2023/08/29 01:51:27;;;;;;;11.95;11.15;;;;;;;12.68;100.00;151867.88;10587673;28;20051;-71
2023/08/29 01:56:31;;;;;;;12.57;11.77;;;;;;;12.58;100.00;151843.31;10587588;28;20394;-71
2023/08/29 02:01:33;;;;;;;11.02;10.32;;;;;;;12.56;100.00;151836.84;10568810;28;20131;-71
2023/08/29 02:06:35;;;;;;;10.45;9.85;;;;;;;12.61;100.00;151851.03;10568634;28;20048;-71
2023/08/29 02:11:38;;;;;;;11.38;10.68;;;;;;;12.56;100.00;151838.13;10586713;28;20047;-71
2023/08/29 02:16:39;;;;;;;12.05;11.25;;;;;;;12.61;100.00;151851.03;10587064;28;20044;-71
2023/08/29 02:21:46;;;;;;;12.32;11.52;;;;;;;12.55;100.00;151834.25;10568603;28;20050;-71
2023/08/29 02:26:48;;;;;;;12.60;11.70;;;;;;;12.56;100.00;151838.13;10586129;28;20090;-71
2023/08/29 02:31:51;;;;;;;12.45;11.55;;;;;;;12.50;100.00;151822.63;10586738;28;20040;-72
2023/08/29 02:36:53;;;;;;;12.45;11.35;;;;;;;12.69;100.00;151870.44;10567738;28;20501;-71
2023/08/29 02:41:55;;;;;;;12.00;11.20;;;;;;;12.60;100.00;151847.19;10585983;28;20035;-71
2023/08/29 02:46:57;;;;;;;15.25;14.20;;;;;;;12.43;100.00;151804.50;10586357;28;20114;-71
2023/08/29 02:51:58;;;;;;;14.95;13.85;;;;;;;12.48;100.00;151817.44;10585906;28;20092;-71
2023/08/29 02:57:00;;;;;;;14.82;13.73;;;;;;;12.53;100.00;151829.09;10586664;28;20039;-72
2023/08/29 03:02:03;;;;;;;14.80;13.80;;;;;;;12.56;100.00;151836.84;10566968;28;20047;-72
2023/08/29 03:07:05;;;;;;;13.38;12.48;;;;;;;12.78;100.00;151892.44;10566369;28;20047;-72
2023/08/29 03:12:07;;;;;;;13.43;12.43;;;;;;;12.59;100.00;151844.59;10584113;28;20080;-72
2023/08/29 03:17:09;;;;;;;13.60;12.57;;;;;;;12.61;100.00;151851.03;10566345;28;20054;-72
2023/08/29 03:22:11;;;;;;;13.50;12.70;;;;;;;12.57;100.00;151839.41;10566356;28;20214;-71
2023/08/29 03:27:13;;;;;;;12.25;11.38;;;;;;;12.60;100.00;151847.19;10565769;28;20047;-72
2023/08/29 03:32:16;;;;;;;12.02;11.13;;;;;;;12.65;100.00;151860.09;10567426;28;20495;-72
2023/08/29 03:37:18;;;;;;;13.50;12.50;;;;;;;12.67;100.00;151864.03;10566364;28;20043;-72
2023/08/29 03:42:19;;;;;;;13.95;12.98;;;;;;;12.55;100.00;151834.25;10585123;28;20126;-72
2023/08/29 03:47:21;;;;;;;13.05;12.23;;;;;;;12.61;100.00;151849.75;10583771;28;20047;-72
2023/08/29 03:52:26;;;;;;;11.63;10.93;;;;;;;12.86;100.00;151913.16;10565371;28;20097;-72
2023/08/29 03:57:29;;;;;;;13.13;12.03;;;;;;;12.61;100.00;151849.75;10583209;28;20059;-73
2023/08/29 04:02:31;;;;;;;12.35;11.55;;;;;;;12.61;100.00;151851.03;10582637;28;20447;-72
2023/08/29 04:07:33;;;;;;;11.07;10.30;;;;;;;12.50;100.00;151822.63;10565153;28;20512;-73
2023/08/29 04:12:35;;;;;;;9.48;8.77;;;;;;;12.51;100.00;151825.19;10583841;28;20039;-72
2023/08/29 04:17:36;;;;;;;10.73;10.00;;;;;;;12.51;100.00;151825.19;10582656;28;20070;-72
2023/08/29 04:22:39;;;;;;;10.05;9.38;;;;;;;12.49;100.00;151818.75;10563722;28;20051;-72
2023/08/29 04:27:41;;;;;;;9.18;8.52;;;;;;;12.46;100.00;151812.28;10582162;28;20035;-72
2023/08/29 04:32:43;;;;;;;11.02;10.05;;;;;;;12.60;100.00;151848.47;10564414;28;20050;-72
2023/08/29 04:37:46;;;;;;;10.65;9.95;;;;;;;12.54;100.00;151832.97;10563824;28;20051;-72
2023/08/29 04:42:50;;;;;;;12.60;11.80;;;;;;;12.60;100.00;151847.19;10565649;28;20040;-71
2023/08/29 04:47:52;;;;;;;14.00;13.00;;;;;;;12.46;100.00;151812.28;10548343;28;20070;-72
2023/08/29 04:52:55;;;;;;;12.13;11.40;;;;;;;12.67;100.00;151864.03;10565354;28;20048;-72
2023/08/29 04:57:57;;;;;;;12.32;11.43;;;;;;;12.62;100.00;151852.38;10583718;28;20046;-72
2023/08/29 05:02:59;;;;;;;12.18;11.43;;;;;;;12.75;100.00;151884.66;10565397;28;20036;-73
2023/08/29 05:08:03;;;;;;;13.55;12.55;;;;;;;12.68;100.00;151867.88;10565018;28;20505;-72
2023/08/29 05:13:06;;;;;;;12.90;11.98;;;;;;;12.68;100.00;151866.59;10564858;28;20040;-72
2023/08/29 05:18:08;;;;;;;12.90;12.00;;;;;;;12.72;100.00;151876.94;10564364;28;20113;-72
2023/08/29 05:23:11;;;;;;;12.57;11.77;;;;;;;12.90;100.00;151922.22;10563581;28;20065;-72
2023/08/29 05:28:12;;;;;;;13.45;12.55;;;;;;;12.88;100.00;151918.28;10584691;28;20050;-72
2023/08/29 05:33:14;;;;;;;16.45;15.18;;;;;;;12.65;100.00;151860.09;10589134;28;20493;-72
2023/08/29 05:38:16;;;;;;;15.43;14.43;;;;;;;12.78;100.00;151893.72;10588419;28;20501;-72
2023/08/29 05:43:18;;;;;;;15.73;14.63;;;;;;;12.83;100.00;151905.38;10589056;28;20078;-72
2023/08/29 05:48:20;;;;;;;14.15;13.15;;;;;;;12.91;100.00;151926.06;10588486;28;20413;-72
2023/08/29 05:53:22;;;;;;;14.38;13.13;;;;;;;12.79;100.00;151895.00;10587751;28;20040;-72
2023/08/29 05:58:25;;;;;;;13.18;12.27;;;;;;;12.87;100.00;151917.00;10588118;28;20078;-73
2023/08/29 06:03:27;;;;;;;11.57;10.63;;;;;;;12.89;100.00;151920.91;10587955;28;20074;-72
2023/08/29 06:08:33;;;;;;;13.23;12.38;;;;;;;12.77;100.00;151889.88;10587559;28;20067;-72
2023/08/29 06:13:35;;;;;;;14.00;13.10;;;;;;;12.82;100.00;151904.06;10587765;28;20060;-72
2023/08/29 06:18:36;;;;;;;13.45;12.50;;;;;;;12.90;100.00;151923.50;10568889;28;20489;-72
2023/08/29 06:23:38;;;;;;;12.40;11.60;;;;;;;13.03;100.00;151955.84;10568318;28;20043;-73
2023/08/29 06:28:40;;;;;;;13.85;12.85;;;;;;;12.89;100.00;151920.91;10570251;28;20043;-72
2023/08/29 06:33:42;;;;;;;11.52;10.82;;;;;;;13.00;100.00;151948.06;10587350;28;20192;-72
2023/08/29 06:38:43;;;;;;;12.88;12.07;;;;;;;12.97;100.00;151941.63;10567324;28;20561;-72
2023/08/29 06:43:48;;;;;;;8.02;7.53;;;;;;;13.11;100.00;151977.84;10568577;28;20042;-72
2023/08/29 06:48:50;;;;;;;6.32;5.93;;;;;;;13.00;100.00;151949.34;10586603;28;20044;-72
2023/08/29 06:53:52;;;;;;;4.95;4.65;;;;;;;13.13;100.00;151982.97;10586092;28;20063;-71
2023/08/29 06:58:54;;;;;;;4.38;4.07;;;;;;;13.34;100.00;152034.78;10586795;28;20059;-72
2023/08/29 07:03:55;;;;;;;4.75;4.45;;;;;;;13.30;100.00;152024.44;10586119;28;20114;-71
2023/08/29 07:08:57;;;;;;;4.70;4.40;;;;;;;13.37;100.00;152043.88;10586187;28;20052;-72
2023/08/29 07:13:59;;;;;;;3.10;2.90;;;;;;;13.45;100.00;152063.25;10586199;28;20036;-72
2023/08/29 07:19:00;;;;;;;2.50;2.40;;;;;;;13.38;100.00;152045.16;10585339;28;20122;-72
2023/08/29 07:24:03;;;;;;;1.98;1.88;;;;;;;13.44;100.00;152060.66;10566402;28;20051;-72
2023/08/29 07:29:05;;;;;;;2.03;1.92;;;;;;;13.62;100.00;152107.25;10585324;28;20040;-72
2023/08/29 07:34:07;;;;;;;1.50;1.40;;;;;;;13.68;100.00;152121.50;10585698;28;20058;-72
2023/08/29 07:39:11;;;;;;;1.65;1.55;;;;;;;13.92;100.00;152181.03;10583826;28;20461;-73
2023/08/29 07:44:13;;;;;;;1.90;1.80;;;;;;;13.85;100.00;152165.47;10584469;28;20048;-72
2023/08/29 07:49:20;;;;;;;1.45;1.35;;;;;;;13.88;100.00;152171.97;10584078;28;20115;-72
2023/08/29 07:54:21;;;;;;;1.20;1.20;;;;;;;13.91;100.00;152179.75;10583570;28;20032;-72
2023/08/29 07:59:23;;;;;;;1.90;1.80;;;;;;;13.98;100.00;152197.84;10583317;28;20493;-73
2023/08/29 08:04:25;;;;;;;1.27;1.20;;;;;;;13.91;100.00;152179.75;10582699;28;20401;-73
2023/08/29 08:09:28;;;;;;;1.45;1.33;;;;;;;13.77;100.00;152144.81;10583944;28;20044;-72
2023/08/29 08:14:30;;;;;;;1.40;1.30;;;;;;;13.90;100.00;152177.16;10583345;28;20040;-73
2023/08/29 08:19:33;;;;;;;1.50;1.40;;;;;;;13.86;100.00;152168.09;10582804;28;20036;-73
2023/08/29 08:24:34;;;;;;;2.00;1.45;;;;;;;14.02;100.00;152206.91;10583449;28;20504;-73
2023/08/29 08:29:36;;;;;;;1.50;1.40;;;;;;;13.85;100.00;152165.47;10582781;28;20067;-73
2023/08/29 08:34:38;;;;;;;1.55;1.45;;;;;;;13.88;100.00;152173.25;10582624;28;20044;-72
2023/08/29 08:39:40;;;;;;;1.40;1.30;;;;;;;14.09;100.00;152226.34;10582863;28;20067;-72
2023/08/29 08:44:42;;;;;;;1.50;1.40;;;;;;;14.05;100.00;152215.97;10583225;28;20453;-72
2023/08/29 08:49:44;;;;;;;1.92;1.83;;;;;;;13.94;100.00;152187.47;10563681;28;20036;-73
2023/08/29 08:54:46;;;;;;;1.73;1.63;;;;;;;13.68;100.00;152120.16;10582955;28;20118;-74
2023/08/29 08:59:48;;;;;;;2.88;1.30;;;;;;;13.91;100.00;152179.75;10581323;28;20043;-72
2023/08/29 09:04:50;;;;;;;1.33;1.10;;;;;;;13.89;100.00;152174.53;10588780;28;20036;-73
2023/08/29 09:10:08;;;;;;;1.10;1.00;;;;;;;14.22;100.00;152257.41;10589603;28;20089;-73
2023/08/29 09:15:09;;;;;;;1.98;1.00;;;;;;;14.28;100.00;152272.94;10571113;28;20105;-73
2023/08/29 09:20:12;;;;;;;0.90;0.90;;;;;;;14.30;100.00;152278.13;10590079;28;20063;-72
2023/08/29 09:25:14;;;;;;;1.00;1.00;;;;;;;14.47;100.00;152322.13;10588941;28;20150;-72
2023/08/29 09:30:17;;;;;;;1.20;1.10;;;;;;;14.33;100.00;152285.88;10588540;28;20576;-72
2023/08/29 09:35:22;;;;;;;0.70;0.63;;;;;;;14.19;100.00;152249.63;10589228;28;20047;-73
2023/08/29 09:40:24;;;;;;;1.10;0.80;;;;;;;14.39;100.00;152301.44;10571126;28;20043;-73
2023/08/29 09:45:30;;;;;;;0.60;0.60;;;;;;;14.24;100.00;152262.56;10589091;28;20401;-74
2023/08/29 09:50:34;;;;;;;0.70;0.70;;;;;;;13.93;100.00;152184.91;10570391;28;20051;-73
2023/08/29 09:55:43;;;;;;;1.00;0.60;;;;;;;13.85;100.00;152165.47;10570346;28;20512;-74
2023/08/29 10:00:46;;;;;;;0.82;0.63;;;;;;;13.99;100.00;152200.47;10587198;28;20054;-73
2023/08/29 10:05:49;;;;;;;0.73;0.55;;;;;;;13.87;100.00;152170.66;10569488;28;20042;-73
2023/08/29 10:10:56;;;;;;;0.75;0.75;;;;;;;13.93;100.00;152184.91;10589054;28;20043;-75
2023/08/29 10:16:01;;;;;;;0.70;0.70;;;;;;;14.03;100.00;152209.47;10588579;28;20063;-73
2023/08/29 10:21:04;;;;;;;1.05;0.95;;;;;;;14.05;100.00;152215.97;10569695;28;20067;-74
2023/08/29 10:26:06;;;;;;;1.80;0.80;;;;;;;14.19;100.00;152249.63;10587274;28;20441;-73
2023/08/29 10:31:08;;;;;;;4.00;1.20;;;;;;;14.26;100.00;152269.06;10586349;28;20039;-73
2023/08/29 10:36:10;;;;;;;0.95;0.50;;;;;;;14.31;100.00;152280.72;10588053;28;20040;-74
2023/08/29 10:41:12;;;;;;;0.80;0.80;;;;;;;14.45;100.00;152315.66;10570384;28;20039;-75
2023/08/29 10:46:14;;;;;;;0.57;0.57;;;;;;;14.55;100.00;152341.59;10587401;28;20405;-75
2023/08/29 10:51:22;;;;;;;0.93;0.90;;;;;;;14.46;100.00;152319.53;10568396;28;20044;-75
2023/08/29 10:56:38;;;;;;;0.77;0.77;;;;;;;14.40;100.00;152304.03;10587521;28;20040;-76
2023/08/29 11:01:40;;;;;;;1.07;0.80;;;;;;;14.33;100.00;152287.16;10586699;28;20127;-73
2023/08/29 11:06:59;;;;;;;0.93;0.80;;;;;;;14.28;100.00;152272.94;10567916;28;20044;-75
2023/08/29 11:12:16;;;;;;;0.70;0.70;;;;;;;14.29;100.00;152275.50;10586449;28;20478;-74
2023/08/29 11:17:25;;;;;;;2.20;1.10;;;;;;;14.25;100.00;152265.16;10568135;28;20049;-74
2023/08/29 11:22:31;;;;;;;1.52;1.30;;;;;;;13.91;100.00;152179.75;10585499;28;20059;-74
2023/08/29 11:27:37;;;;;;;0.90;0.80;;;;;;;13.79;100.00;152148.66;10585141;28;20386;-75
2023/08/29 11:32:39;;;;;;;1.30;0.90;;;;;;;13.72;100.00;152130.53;10586171;28;20451;-74
2023/08/29 11:37:41;;;;;;;1.88;0.85;;;;;;;13.70;100.00;152125.38;10585018;28;20044;-73
2023/08/29 11:42:45;;;;;;;0.82;0.82;;;;;;;14.01;100.00;152205.63;10583971;28;20119;-73
2023/08/29 11:48:12;;;;;;;0.93;0.70;;;;;;;13.97;100.00;152195.25;10584529;28;20124;-74
2023/08/29 11:53:28;;;;;;;1.08;0.80;;;;;;;14.29;100.00;152275.50;10576032;28;20493;-73
2023/08/29 11:58:31;;;;;;;0.70;0.70;;;;;;;14.28;100.00;152272.94;10584938;28;20396;-73
2023/08/29 12:03:39;;;;;;;0.80;0.75;;;;;;;14.25;100.00;152266.44;10565846;28;20078;-73
2023/08/29 12:08:43;;;;;;;0.70;0.70;;;;;;;14.30;100.00;152278.13;10583790;28;20039;-73
2023/08/29 12:14:01;;;;;;;0.73;0.50;;;;;;;14.18;100.00;152247.06;10583553;28;20463;-74
2023/08/29 12:19:08;;;;;;;1.65;0.60;;;;;;;14.45;100.00;152315.66;10586768;28;20043;-73
2023/08/29 12:24:11;;;;;;;0.90;0.90;;;;;;;14.43;100.00;152311.75;10587026;28;20040;-74
2023/08/29 12:29:13;;;;;;;1.05;0.77;;;;;;;14.25;100.00;152265.16;10568005;28;20050;-74
2023/08/29 12:34:15;;;;;;;1.30;0.70;;;;;;;14.49;100.00;152327.38;10586682;28;20064;-73
2023/08/29 12:39:16;;;;;;;1.08;0.85;;;;;;;14.55;100.00;152341.59;10593579;27;20047;-74
2023/08/29 12:44:18;;;;;;;0.80;0.70;;;;;;;14.46;100.00;152318.25;10594771;28;20032;-73
2023/08/29 12:49:20;;;;;;;0.73;0.70;;;;;;;14.37;100.00;152296.22;10593821;28;20089;-73
2023/08/29 12:54:22;;;;;;;1.02;0.80;;;;;;;14.53;100.00;152336.44;10595058;28;20400;-73
2023/08/29 12:59:24;;;;;;;0.68;0.63;;;;;;;14.48;100.00;152324.78;10594612;28;20394;-75
2023/08/29 13:04:25;;;;;;;1.13;1.02;;;;;;;14.44;100.00;152314.38;10594079;28;20538;-76
2023/08/29 13:09:27;;;;;;;0.95;0.80;;;;;;;14.60;100.00;152355.84;10595051;28;20044;-75
2023/08/29 13:14:38;;;;;;;0.50;0.50;;;;;;;14.31;100.00;152282.00;10594263;28;20044;-73
2023/08/29 13:19:41;;;;;;;1.15;0.60;;;;;;;14.72;100.00;152384.34;10574776;28;20493;-74
2023/08/29 13:24:43;;;;;;;0.70;0.70;;;;;;;14.60;100.00;152354.53;10593264;28;20042;-74
2023/08/29 13:29:45;;;;;;;0.50;0.50;;;;;;;14.35;100.00;152291.09;10593007;28;20504;-74
2023/08/29 13:34:46;;;;;;;0.95;0.50;;;;;;;14.33;100.00;152285.88;10593223;28;20404;-74
2023/08/29 13:39:54;;;;;;;0.50;0.50;;;;;;;14.49;100.00;152327.38;10573826;28;20047;-74
2023/08/29 13:44:57;;;;;;;0.40;0.40;;;;;;;14.82;100.00;152411.53;10592948;28;20374;-75
2023/08/29 13:49:58;;;;;;;0.47;0.40;;;;;;;14.91;100.00;152432.25;10592640;28;20046;-74
2023/08/29 13:55:00;;;;;;;0.55;0.50;;;;;;;15.00;100.00;152455.56;10593736;28;20036;-74
2023/08/29 14:00:07;;;;;;;1.55;0.50;;;;;;;15.04;100.00;152465.94;10574632;28;20048;-74
2023/08/29 14:05:15;;;;;;;1.25;0.55;;;;;;;15.28;100.00;152526.84;10589577;28;20089;-73
2023/08/29 14:10:17;;;;;;;1.42;0.82;;;;;;;15.25;100.00;152519.06;10588466;28;20047;-74
2023/08/29 14:15:19;;;;;;;1.08;0.43;;;;;;;15.51;100.00;152585.16;10588949;28;20040;-74
2023/08/29 14:20:21;;;;;;;0.50;0.50;;;;;;;15.20;100.00;152507.41;10587994;28;20085;-73
2023/08/29 14:25:23;;;;;;;0.30;0.30;;;;;;;15.35;100.00;152544.97;10588016;28;20085;-74
2023/08/29 14:30:25;;;;;;;1.38;0.47;;;;;;;15.16;100.00;152495.75;10588193;28;20452;-74
2023/08/29 14:35:27;;;;;;;0.50;0.40;;;;;;;15.23;100.00;152513.84;10587936;28;20044;-73
2023/08/29 14:40:29;;;;;;;0.73;0.73;;;;;;;15.52;100.00;152587.75;10587353;28;20043;-73
2023/08/29 14:45:31;;;;;;;0.50;0.50;;;;;;;15.28;100.00;152528.16;10587596;28;20035;-73
2023/08/29 14:50:33;;;;;;;1.05;0.45;;;;;;;15.24;100.00;152517.78;10587119;28;20059;-74
2023/08/29 14:55:35;;;;;;;0.50;0.50;;;;;;;15.19;100.00;152503.53;10586310;28;20040;-73
2023/08/29 15:00:41;;;;;;;0.55;0.55;;;;;;;15.22;100.00;152511.28;10585108;28;20044;-74
2023/08/29 15:05:43;;;;;;;1.10;0.70;;;;;;;15.10;100.00;152482.81;10587431;28;20462;-74
2023/08/29 15:10:44;;;;;;;0.73;0.57;;;;;;;15.00;100.00;152456.88;10567572;28;20286;-75
2023/08/29 15:15:46;;;;;;;1.58;0.80;;;;;;;14.95;100.00;152442.63;10585497;28;20046;-74
2023/08/29 15:20:48;;;;;;;0.90;0.70;;;;;;;14.80;100.00;152406.38;10584273;28;20093;-73
2023/08/29 15:25:53;;;;;;;0.90;0.90;;;;;;;14.95;100.00;152443.91;10583977;28;20431;-74
2023/08/29 15:30:58;;;;;;;0.82;0.70;;;;;;;15.00;100.00;152456.88;10585329;28;20043;-74
2023/08/29 15:36:00;;;;;;;1.30;0.90;;;;;;;14.75;100.00;152392.13;10584791;28;20036;-74
2023/08/29 15:41:04;;;;;;;0.82;0.82;;;;;;;14.83;100.00;152412.81;10584083;28;20155;-74
2023/08/29 15:46:07;;;;;;;1.33;1.00;;;;;;;14.86;100.00;152420.59;10583490;28;20373;-74
2023/08/29 15:51:08;;;;;;;1.10;1.00;;;;;;;14.96;100.00;152446.50;10583613;28;20453;-74
2023/08/29 15:56:10;;;;;;;0.80;0.80;;;;;;;14.82;100.00;152411.53;10584089;28;20043;-73
2023/08/29 16:01:12;;;;;;;0.80;0.80;;;;;;;14.53;100.00;152337.72;10565006;28;20126;-75
2023/08/29 16:06:14;;;;;;;1.00;0.90;;;;;;;14.52;100.00;152333.81;10583638;28;20043;-74
2023/08/29 16:11:16;;;;;;;0.93;0.82;;;;;;;14.74;100.00;152389.50;10582445;28;20059;-74
2023/08/29 16:16:18;;;;;;;0.70;0.70;;;;;;;14.65;100.00;152367.50;10582983;28;20115;-74
2023/08/29 16:21:20;;;;;;;1.20;0.90;;;;;;;14.68;100.00;152375.28;10564561;28;20044;-75
2023/08/29 16:26:21;;;;;;;1.65;0.93;;;;;;;14.79;100.00;152402.50;10582943;28;20036;-75
2023/08/29 16:31:23;;;;;;;0.88;0.88;;;;;;;14.76;100.00;152394.72;10582922;28;20066;-74
2023/08/29 16:36:25;;;;;;;1.00;1.00;;;;;;;14.63;100.00;152363.63;10564218;28;20044;-74
2023/08/29 16:41:27;;;;;;;0.85;0.80;;;;;;;14.61;100.00;152357.19;10582800;28;20438;-76
2023/08/29 16:46:28;;;;;;;1.40;1.00;;;;;;;14.62;100.00;152361.03;10564763;28;20044;-75
2023/08/29 16:51:30;;;;;;;1.88;0.90;;;;;;;14.79;100.00;152402.50;10582919;28;20048;-73
2023/08/29 16:56:32;;;;;;;1.20;1.10;;;;;;;14.70;100.00;152379.16;10582140;28;20036;-74
2023/08/29 17:01:34;;;;;;;2.83;1.40;;;;;;;14.69;100.00;152377.84;10581448;28;20046;-74
2023/08/29 17:06:36;;;;;;;2.65;1.00;;;;;;;14.67;100.00;152371.41;10581799;28;20035;-74
2023/08/29 17:11:37;;;;;;;1.58;1.15;;;;;;;14.53;100.00;152336.44;10581940;28;20450;-74
2023/08/29 17:16:40;;;;;;;0.98;0.95;;;;;;;14.44;100.00;152314.38;10582378;28;20031;-74
2023/08/29 17:21:42;;;;;;;2.20;1.20;;;;;;;14.40;100.00;152304.03;10581536;28;20063;-74
2023/08/29 17:26:43;;;;;;;1.80;0.90;;;;;;;14.40;100.00;152304.03;10589358;28;20035;-74
2023/08/29 17:31:45;;;;;;;1.00;0.90;;;;;;;14.58;100.00;152350.69;10589772;28;20047;-74
2023/08/29 17:36:47;;;;;;;1.40;1.30;;;;;;;14.58;100.00;152350.69;10589870;28;20039;-74
2023/08/29 17:41:49;;;;;;;1.92;1.33;;;;;;;14.51;100.00;152331.25;10588874;28;20047;-75
2023/08/29 17:46:50;;;;;;;1.90;1.30;;;;;;;14.47;100.00;152322.13;10570238;28;20047;-74
2023/08/29 17:51:52;;;;;;;4.30;1.42;;;;;;;14.38;100.00;152298.81;10588800;28;20047;-74
2023/08/29 17:56:54;;;;;;;1.40;1.30;;;;;;;14.42;100.00;152307.88;10570738;28;20067;-73
2023/08/29 18:01:56;;;;;;;2.08;1.70;;;;;;;14.50;100.00;152328.66;10588773;28;20043;-75
2023/08/29 18:06:58;;;;;;;1.80;1.27;;;;;;;14.45;100.00;152316.97;10588955;28;20096;-74
2023/08/29 18:12:00;;;;;;;1.88;1.10;;;;;;;14.52;100.00;152335.16;10588553;28;20041;-74
2023/08/29 18:17:02;;;;;;;2.15;1.20;;;;;;;14.83;100.00;152412.81;10569106;28;20117;-74
2023/08/29 18:22:04;;;;;;;3.33;1.70;;;;;;;14.74;100.00;152389.50;10587116;28;20467;-74
2023/08/29 18:27:06;;;;;;;1.60;1.48;;;;;;;14.72;100.00;152384.34;10589226;28;20047;-75
2023/08/29 18:32:08;;;;;;;1.67;1.20;;;;;;;14.68;100.00;152373.97;10587103;28;20047;-74
2023/08/29 18:37:10;;;;;;;1.70;1.23;;;;;;;14.74;100.00;152390.84;10587720;28;20036;-74
2023/08/29 18:42:12;;;;;;;2.28;1.38;;;;;;;14.48;100.00;152323.47;10586983;28;20467;-75
2023/08/29 18:47:13;;;;;;;1.40;1.30;;;;;;;14.49;100.00;152327.38;10586680;28;20071;-74
2023/08/29 18:52:16;;;;;;;2.05;1.45;;;;;;;14.29;100.00;152276.81;10586374;28;20055;-74
2023/08/29 18:57:18;;;;;;;1.55;1.45;;;;;;;14.26;100.00;152267.78;10586444;28;20058;-76
2023/08/29 19:02:19;;;;;;;2.22;1.48;;;;;;;14.33;100.00;152285.88;10590526;28;20039;-76
2023/08/29 19:07:21;;;;;;;1.90;1.80;;;;;;;14.18;100.00;152248.34;10589318;28;20043;-75
2023/08/29 19:12:23;;;;;;;2.75;2.55;;;;;;;14.16;100.00;152241.84;10589733;28;20074;-75
2023/08/29 19:17:25;;;;;;;2.63;1.98;;;;;;;14.21;100.00;152254.78;10589309;28;20483;-75
2023/08/29 19:22:28;;;;;;;1.60;1.50;;;;;;;14.18;100.00;152247.06;10589362;28;20051;-74
2023/08/29 19:27:31;;;;;;;1.63;1.48;;;;;;;13.95;100.00;152190.09;10590128;28;20036;-74
2023/08/29 19:32:33;;;;;;;2.58;1.45;;;;;;;13.91;100.00;152178.44;10589146;28;20063;-73
2023/08/29 19:37:34;;;;;;;1.60;1.40;;;;;;;13.83;100.00;152160.31;10588703;28;20097;-74
2023/08/29 19:42:36;;;;;;;1.80;1.70;;;;;;;13.67;100.00;152117.59;10570431;28;20093;-74
2023/08/29 19:47:38;;;;;;;2.30;1.60;;;;;;;13.62;100.00;152107.25;10588162;28;20036;-73
2023/08/29 19:52:40;;;;;;;2.72;2.53;;;;;;;13.43;100.00;152058.09;10570731;28;20039;-73
2023/08/29 19:57:42;;;;;;;2.67;2.42;;;;;;;13.46;100.00;152064.53;10587988;28;20550;-73
2023/08/29 20:02:46;;;;;;;4.25;3.60;;;;;;;13.36;100.00;152039.94;10587923;28;20040;-75
2023/08/29 20:07:48;;;;;;;3.00;2.80;;;;;;;13.22;100.00;152005.03;10588013;28;20114;-74
2023/08/29 20:12:50;;;;;;;4.18;3.78;;;;;;;13.18;100.00;151994.63;10569067;28;20036;-74
2023/08/29 20:17:52;;;;;;;4.70;4.40;;;;;;;13.21;100.00;152001.13;10569736;28;20062;-73
2023/08/29 20:22:54;;;;;;;6.32;5.18;;;;;;;13.32;100.00;152029.59;10568853;28;20043;-74
2023/08/29 20:27:55;;;;;;;6.00;5.50;;;;;;;13.32;100.00;152029.59;10587848;28;20032;-73
2023/08/29 20:32:58;;;;;;;5.55;5.15;;;;;;;13.35;100.00;152037.38;10587317;28;20047;-73
2023/08/29 20:38:00;;;;;;;4.18;3.97;;;;;;;13.40;100.00;152049.03;10587002;28;20122;-73
2023/08/29 20:43:03;;;;;;;4.05;3.75;;;;;;;13.45;100.00;152063.25;10587490;28;20071;-74
2023/08/29 20:48:05;;;;;;;4.45;4.18;;;;;;;13.40;100.00;152049.03;10586539;28;20057;-74
2023/08/29 20:53:08;;;;;;;4.60;4.30;;;;;;;13.36;100.00;152039.94;10587212;28;20052;-74
2023/08/29 20:58:09;;;;;;;3.03;2.83;;;;;;;13.74;100.00;152137.03;10589959;28;20434;-74
2023/08/29 21:03:11;;;;;;;2.55;2.35;;;;;;;13.49;100.00;152073.59;10592361;28;20055;-74
2023/08/29 21:08:13;;;;;;;1.85;1.70;;;;;;;13.55;100.00;152087.88;10591196;28;20043;-72
2023/08/29 21:13:16;;;;;;;1.95;1.73;;;;;;;13.53;100.00;152083.94;10572555;28;20476;-72
2023/08/29 21:18:19;;;;;;;1.90;1.80;;;;;;;13.34;100.00;152036.09;10591030;28;20043;-73
2023/08/29 21:23:22;;;;;;;2.00;1.90;;;;;;;13.38;100.00;152045.16;10590396;28;20493;-73
2023/08/29 21:28:25;;;;;;;2.13;1.92;;;;;;;13.33;100.00;152033.50;10572336;28;20127;-72
2023/08/29 21:33:27;;;;;;;2.30;1.75;;;;;;;13.47;100.00;152067.16;10590916;28;20043;-73
2023/08/29 21:38:31;;;;;;;2.63;1.58;;;;;;;13.37;100.00;152042.59;10589782;28;20063;-73
2023/08/29 21:43:33;;;;;;;1.92;1.67;;;;;;;13.40;100.00;152050.31;10589357;28;20071;-73
2023/08/29 21:48:35;;;;;;;1.50;1.30;;;;;;;13.54;100.00;152086.53;10588577;28;20048;-72
2023/08/29 21:53:37;;;;;;;1.83;1.73;;;;;;;13.52;100.00;152081.38;10588537;28;20097;-72
2023/08/29 21:58:39;;;;;;;2.85;1.50;;;;;;;13.63;100.00;152109.88;10588247;28;20074;-72
2023/08/29 22:03:41;;;;;;;1.13;1.10;;;;;;;13.68;100.00;152120.16;10588847;28;20036;-74
2023/08/29 22:08:43;;;;;;;1.48;1.20;;;;;;;13.51;100.00;152078.78;10587374;28;20504;-73
2023/08/29 22:13:45;;;;;;;1.58;1.42;;;;;;;13.38;100.00;152045.16;10587960;28;20060;-73
2023/08/29 22:18:47;;;;;;;1.92;1.20;;;;;;;13.29;100.00;152021.88;10587294;28;20055;-74
2023/08/29 22:23:49;;;;;;;1.80;0.93;;;;;;;13.58;100.00;152095.59;10569209;28;20123;-73
2023/08/29 22:28:50;;;;;;;1.42;1.13;;;;;;;13.43;100.00;152058.09;10587273;28;20067;-73
2023/08/29 22:33:52;;;;;;;1.55;1.30;;;;;;;13.36;100.00;152039.94;10586765;28;20049;-74
2023/08/29 22:38:54;;;;;;;1.23;1.15;;;;;;;13.53;100.00;152082.66;10568588;28;20074;-73
2023/08/29 22:43:56;;;;;;;1.80;1.10;;;;;;;13.52;100.00;152080.09;10586864;28;20488;-73
2023/08/29 22:48:57;;;;;;;1.30;1.20;;;;;;;13.75;100.00;152138.31;10585955;28;20086;-73
2023/08/29 22:53:59;;;;;;;1.45;1.35;;;;;;;13.75;100.00;152139.59;10569085;28;20080;-73